Rowena, Oregon
Current Conditions -  °F | °C
As of 10:53 AM on Sunday 23 Nov 2014 (Local Time) from KDLS Reporting Station
Clear Clear  
Wind Chill: 58°   Ceiling: Unl
Heat Index: 58°   Visibility: 10mi
Dew Point: 36°   Wind: 22mph
Humidity: 44%   Direction: 270°W
Pressure: 30.17"   Gusts: 28mph
Location:  45.5517°N, 121.219°W
Report Text: KDLS 231853Z AUTO 27019G24KT 10SM CLR 14/02 A3017 RMK AO2 PK WND 27028/1829 SLP216 T01440022 $
Loading
Personal Weather Stations






























Interactive Weather Map New forecast layout! Learn more

10-Day Weather Forecast

Advertisements
Track Severe Weather on mobile